Time;durP1;ratioP1;P1;durP2;ratioP2;P2;SDS_P1;SDS_P2;PMS_P1;PMS_P2;Temp;Humidity;BMP_temperature;BMP_pressure;BME280_temperature;BME280_humidity;BME280_pressure;Samples;Min_cycle;Max_cycle;Signal;HPM_P1;HPM_P2
2023/10/04 00:01:36;;;;;;;7.47;2.97;;;;;;;;;;5044627;28;20817;-62
2023/10/04 00:04:03;;;;;;;6.80;3.10;;;;;;;;;;5043219;28;20406;-63
2023/10/04 00:06:31;;;;;;;6.20;2.60;;;;;;;;;;5044227;28;20467;-62
2023/10/04 00:09:00;;;;;;;8.75;3.42;;;;;;;;;;5046719;28;20460;-63
2023/10/04 00:11:27;;;;;;;7.95;2.92;;;;;;;;;;5046491;28;20505;-62
2023/10/04 00:13:55;;;;;;;8.90;3.30;;;;;;;;;;5042471;28;20414;-62
2023/10/04 00:16:22;;;;;;;9.10;2.90;;;;;;;;;;5044086;28;20507;-62
2023/10/04 00:18:50;;;;;;;9.63;3.08;;;;;;;;;;5045031;28;20488;-62
2023/10/04 00:21:17;;;;;;;7.45;3.00;;;;;;;;;;5033919;28;20485;-62
2023/10/04 00:23:44;;;;;;;8.02;3.40;;;;;;;;;;5042853;28;20411;-62
2023/10/04 00:26:12;;;;;;;9.57;2.78;;;;;;;;;;5043888;28;20506;-62
2023/10/04 00:28:39;;;;;;;8.07;3.13;;;;;;;;;;5042652;28;20454;-62
2023/10/04 00:31:06;;;;;;;8.30;2.88;;;;;;;;;;5043842;28;20435;-62
2023/10/04 00:33:35;;;;;;;7.63;2.92;;;;;;;;;;5044852;28;20443;-62
2023/10/04 00:36:03;;;;;;;12.57;2.85;;;;;;;;;;5041731;28;21013;-62
2023/10/04 00:38:30;;;;;;;9.43;3.35;;;;;;;;;;5043839;28;20849;-62
2023/10/04 00:40:57;;;;;;;11.10;3.33;;;;;;;;;;5042444;28;20410;-62
2023/10/04 00:43:26;;;;;;;12.00;3.17;;;;;;;;;;5045120;28;20410;-62
2023/10/04 00:45:53;;;;;;;8.93;2.70;;;;;;;;;;5043661;28;20817;-62
2023/10/04 00:48:23;;;;;;;8.70;3.22;;;;;;;;;;5041838;28;20836;-62
2023/10/04 00:50:50;;;;;;;8.30;3.40;;;;;;;;;;5042741;28;20833;-62
2023/10/04 00:53:18;;;;;;;10.88;3.20;;;;;;;;;;5045345;28;20413;-62
2023/10/04 00:55:46;;;;;;;6.72;2.85;;;;;;;;;;5044968;28;20417;-62
2023/10/04 00:58:17;;;;;;;8.40;2.80;;;;;;;;;;5042597;28;20415;-62
2023/10/04 01:00:45;;;;;;;7.78;2.72;;;;;;;;;;5042110;28;20903;-62
2023/10/04 01:03:14;;;;;;;10.75;2.90;;;;;;;;;;5041209;28;20411;-62
2023/10/04 01:05:46;;;;;;;8.77;2.77;;;;;;;;;;5043560;28;20558;-62
2023/10/04 01:08:15;;;;;;;7.55;2.83;;;;;;;;;;5041726;28;20503;-62
2023/10/04 01:10:43;;;;;;;9.80;3.05;;;;;;;;;;5043130;28;20442;-62
2023/10/04 01:13:11;;;;;;;8.13;2.60;;;;;;;;;;5042236;28;20423;-62
2023/10/04 01:15:39;;;;;;;9.48;3.08;;;;;;;;;;5048736;28;20859;-62
2023/10/04 01:18:10;;;;;;;12.32;3.50;;;;;;;;;;5044939;28;20493;-62
2023/10/04 01:20:38;;;;;;;10.20;3.03;;;;;;;;;;5043662;28;20456;-62
2023/10/04 01:23:09;;;;;;;7.17;2.83;;;;;;;;;;5044114;28;20483;-62
2023/10/04 01:25:37;;;;;;;9.13;2.97;;;;;;;;;;5041554;28;20456;-62
2023/10/04 01:28:12;;;;;;;9.50;3.08;;;;;;;;;;5040805;28;20409;-62
2023/10/04 01:30:39;;;;;;;8.52;3.15;;;;;;;;;;5043660;28;20424;-62
2023/10/04 01:33:10;;;;;;;6.50;2.40;;;;;;;;;;5037307;28;20489;-61
2023/10/04 01:35:37;;;;;;;8.18;2.90;;;;;;;;;;5040508;28;20873;-62
2023/10/04 01:38:06;;;;;;;7.72;2.70;;;;;;;;;;5044272;28;20411;-62
2023/10/04 01:40:35;;;;;;;8.18;2.90;;;;;;;;;;5032578;28;20419;-62
2023/10/04 01:43:09;;;;;;;8.70;2.97;;;;;;;;;;5032614;28;20581;-62
2023/10/04 01:45:36;;;;;;;10.60;2.95;;;;;;;;;;5041041;28;20442;-62
2023/10/04 01:48:05;;;;;;;8.05;3.13;;;;;;;;;;5044852;28;20498;-62
2023/10/04 01:50:32;;;;;;;9.93;3.17;;;;;;;;;;5037274;28;20413;-62
2023/10/04 01:53:00;;;;;;;9.50;2.83;;;;;;;;;;5037737;28;20409;-62
2023/10/04 01:55:27;;;;;;;13.82;2.95;;;;;;;;;;5043344;28;20504;-62
2023/10/04 01:57:56;;;;;;;8.73;2.65;;;;;;;;;;5040577;28;20470;-62
2023/10/04 02:00:25;;;;;;;9.20;3.03;;;;;;;;;;5040929;28;20854;-62
2023/10/04 02:02:52;;;;;;;8.90;3.00;;;;;;;;;;5041641;28;20780;-62
2023/10/04 02:05:26;;;;;;;9.70;3.00;;;;;;;;;;5039571;28;20446;-62
2023/10/04 02:07:54;;;;;;;10.63;3.10;;;;;;;;;;5042242;28;20471;-62
2023/10/04 02:10:22;;;;;;;11.82;3.05;;;;;;;;;;5043461;28;20575;-62
2023/10/04 02:12:50;;;;;;;7.50;2.90;;;;;;;;;;5043262;28;20417;-62
2023/10/04 02:15:17;;;;;;;7.35;2.75;;;;;;;;;;5041995;28;20545;-62
2023/10/04 02:17:45;;;;;;;8.23;2.75;;;;;;;;;;5040324;28;20476;-62
2023/10/04 02:20:21;;;;;;;8.43;2.60;;;;;;;;;;5040453;28;20876;-62
2023/10/04 02:22:48;;;;;;;10.60;2.88;;;;;;;;;;5045514;28;20409;-62
2023/10/04 02:25:17;;;;;;;6.47;2.80;;;;;;;;;;5040018;28;20469;-62
2023/10/04 02:27:44;;;;;;;8.88;2.60;;;;;;;;;;5041632;28;20440;-62
2023/10/04 02:30:15;;;;;;;8.88;2.63;;;;;;;;;;5042695;28;20520;-62
2023/10/04 02:32:44;;;;;;;13.07;2.90;;;;;;;;;;5038284;28;20765;-62
2023/10/04 02:35:20;;;;;;;8.90;3.47;;;;;;;;;;5041908;28;20455;-62
2023/10/04 02:37:47;;;;;;;9.95;2.60;;;;;;;;;;5040595;28;20757;-62
2023/10/04 02:40:15;;;;;;;10.00;3.17;;;;;;;;;;5040652;28;20407;-62
2023/10/04 02:42:44;;;;;;;8.90;2.80;;;;;;;;;;5042539;28;20418;-62
2023/10/04 02:45:18;;;;;;;9.57;3.17;;;;;;;;;;5040726;28;20896;-62
2023/10/04 02:47:48;;;;;;;10.38;3.25;;;;;;;;;;5043473;28;20421;-62
2023/10/04 02:50:15;;;;;;;12.27;3.60;;;;;;;;;;5040639;28;20423;-62
2023/10/04 02:52:42;;;;;;;9.63;3.40;;;;;;;;;;5043271;28;20409;-62
2023/10/04 02:55:09;;;;;;;9.02;2.95;;;;;;;;;;5043224;28;20409;-62
2023/10/04 02:57:36;;;;;;;8.25;2.70;;;;;;;;;;5043682;28;20472;-62
2023/10/04 03:00:10;;;;;;;10.27;3.20;;;;;;;;;;5039776;28;20422;-62
2023/10/04 03:02:37;;;;;;;11.43;3.15;;;;;;;;;;5039950;28;20693;-61
2023/10/04 03:05:06;;;;;;;9.30;3.25;;;;;;;;;;5040654;28;20417;-62
2023/10/04 03:07:34;;;;;;;12.20;3.15;;;;;;;;;;5042306;28;20468;-62
2023/10/04 03:10:01;;;;;;;10.18;3.35;;;;;;;;;;5039650;28;20917;-62
2023/10/04 03:12:27;;;;;;;9.52;2.97;;;;;;;;;;5040741;28;20417;-62
2023/10/04 03:14:56;;;;;;;10.60;3.38;;;;;;;;;;5042085;28;20471;-62
2023/10/04 03:17:23;;;;;;;9.77;3.10;;;;;;;;;;5041622;28;20432;-62
2023/10/04 03:19:51;;;;;;;10.88;2.92;;;;;;;;;;5040976;28;20407;-62
2023/10/04 03:22:22;;;;;;;9.20;3.33;;;;;;;;;;5042843;28;20504;-62
2023/10/04 03:24:49;;;;;;;10.00;3.10;;;;;;;;;;5041060;28;20414;-62
2023/10/04 03:27:16;;;;;;;11.65;3.40;;;;;;;;;;5038068;28;20523;-62
2023/10/04 03:29:43;;;;;;;11.50;3.47;;;;;;;;;;5039128;28;20433;-62
2023/10/04 03:32:10;;;;;;;9.55;3.33;;;;;;;;;;5042018;28;20412;-62
2023/10/04 03:34:38;;;;;;;14.80;3.05;;;;;;;;;;5043174;28;20914;-62
2023/10/04 03:37:09;;;;;;;13.18;3.60;;;;;;;;;;5041694;28;20419;-62
2023/10/04 03:39:37;;;;;;;8.82;3.10;;;;;;;;;;5042133;28;20443;-62
2023/10/04 03:42:05;;;;;;;10.10;3.20;;;;;;;;;;5042749;28;20482;-62
2023/10/04 03:44:31;;;;;;;9.88;3.15;;;;;;;;;;5031366;28;20407;-62
2023/10/04 03:46:59;;;;;;;12.35;3.50;;;;;;;;;;5030242;28;21107;-62
2023/10/04 03:49:26;;;;;;;12.00;3.40;;;;;;;;;;5029971;28;20920;-62
2023/10/04 03:51:53;;;;;;;13.57;3.63;;;;;;;;;;5038188;28;20420;-62
2023/10/04 03:54:20;;;;;;;11.07;3.33;;;;;;;;;;5038408;28;20714;-62
2023/10/04 03:56:49;;;;;;;10.32;3.10;;;;;;;;;;5048860;28;20412;-62
2023/10/04 03:59:17;;;;;;;11.00;3.00;;;;;;;;;;5038854;28;20471;-62
2023/10/04 04:01:43;;;;;;;9.63;3.05;;;;;;;;;;5042492;28;20425;-62
2023/10/04 04:04:17;;;;;;;10.20;3.40;;;;;;;;;;5039019;28;20828;-62
2023/10/04 04:06:44;;;;;;;8.80;2.90;;;;;;;;;;5039666;28;21047;-62
2023/10/04 04:09:12;;;;;;;12.85;3.90;;;;;;;;;;5039495;28;20461;-62
2023/10/04 04:11:39;;;;;;;10.75;2.83;;;;;;;;;;5041496;28;20413;-62
2023/10/04 04:14:08;;;;;;;10.32;3.13;;;;;;;;;;5039377;28;20781;-62
2023/10/04 04:16:37;;;;;;;10.23;2.90;;;;;;;;;;5038440;28;20500;-62
2023/10/04 04:19:07;;;;;;;10.05;3.40;;;;;;;;;;5039024;28;20446;-62
2023/10/04 04:21:34;;;;;;;10.60;3.17;;;;;;;;;;5040085;28;20453;-62
2023/10/04 04:24:01;;;;;;;13.70;3.17;;;;;;;;;;5045016;28;20428;-62
2023/10/04 04:26:29;;;;;;;11.60;3.35;;;;;;;;;;5037419;28;20411;-62
2023/10/04 04:28:56;;;;;;;10.45;3.10;;;;;;;;;;5039712;28;20455;-62
2023/10/04 04:31:25;;;;;;;13.18;3.30;;;;;;;;;;5038857;28;20473;-62
2023/10/04 04:33:55;;;;;;;12.25;3.38;;;;;;;;;;5039187;28;20411;-62
2023/10/04 04:36:26;;;;;;;11.23;3.08;;;;;;;;;;5039591;28;20468;-62
2023/10/04 04:38:53;;;;;;;13.30;3.30;;;;;;;;;;5041934;28;20501;-62
2023/10/04 04:41:25;;;;;;;10.73;3.10;;;;;;;;;;5042543;28;20486;-62
2023/10/04 04:43:52;;;;;;;7.97;2.80;;;;;;;;;;5042261;28;20503;-62
2023/10/04 04:46:19;;;;;;;12.75;3.13;;;;;;;;;;5039008;28;20411;-62
2023/10/04 04:48:48;;;;;;;17.45;3.80;;;;;;;;;;5043734;28;20413;-62
2023/10/04 04:51:17;;;;;;;9.95;3.20;;;;;;;;;;5041339;28;20949;-62
2023/10/04 04:53:45;;;;;;;10.43;3.03;;;;;;;;;;5042438;28;20455;-62
2023/10/04 04:56:14;;;;;;;9.75;3.08;;;;;;;;;;5041069;28;20976;-62
2023/10/04 04:58:44;;;;;;;12.05;3.45;;;;;;;;;;5044963;28;20788;-62
2023/10/04 05:01:11;;;;;;;13.13;3.35;;;;;;;;;;5043272;28;20419;-62
2023/10/04 05:03:41;;;;;;;11.50;3.47;;;;;;;;;;5045891;28;20414;-62
2023/10/04 05:06:14;;;;;;;13.85;3.47;;;;;;;;;;5040885;28;20501;-62
2023/10/04 05:08:41;;;;;;;10.52;3.70;;;;;;;;;;5044159;28;20895;-62
2023/10/04 05:11:09;;;;;;;13.60;3.47;;;;;;;;;;5045325;28;20899;-62
2023/10/04 05:13:36;;;;;;;14.73;3.53;;;;;;;;;;5043674;28;20808;-62
2023/10/04 05:16:04;;;;;;;14.77;3.67;;;;;;;;;;5040916;28;20857;-62
2023/10/04 05:18:31;;;;;;;16.13;4.05;;;;;;;;;;5044667;28;20868;-62
2023/10/04 05:21:00;;;;;;;15.88;4.05;;;;;;;;;;5041049;28;20801;-62
2023/10/04 05:23:29;;;;;;;13.97;3.70;;;;;;;;;;5046807;28;20447;-62
2023/10/04 05:25:56;;;;;;;15.15;3.72;;;;;;;;;;5041075;28;20405;-62
2023/10/04 05:28:23;;;;;;;12.40;3.53;;;;;;;;;;5047059;28;20418;-62
2023/10/04 05:30:51;;;;;;;15.00;3.63;;;;;;;;;;5045756;28;20421;-62
2023/10/04 05:33:19;;;;;;;13.98;3.67;;;;;;;;;;5041543;28;20446;-62
2023/10/04 05:35:47;;;;;;;11.90;3.70;;;;;;;;;;5045320;28;20471;-62
2023/10/04 05:38:17;;;;;;;12.23;3.97;;;;;;;;;;5041074;28;20894;-62
2023/10/04 05:40:46;;;;;;;16.27;4.10;;;;;;;;;;5041939;28;20403;-62
2023/10/04 05:43:14;;;;;;;13.40;4.35;;;;;;;;;;5032650;28;20427;-65
2023/10/04 05:45:42;;;;;;;14.50;4.65;;;;;;;;;;5037335;28;20425;-63
2023/10/04 05:48:09;;;;;;;12.43;4.20;;;;;;;;;;5045284;28;20459;-63
2023/10/04 05:50:37;;;;;;;16.52;4.70;;;;;;;;;;5041904;28;20437;-64
2023/10/04 05:53:06;;;;;;;18.63;4.45;;;;;;;;;;5119060;22;20506;-64
2023/10/04 05:55:34;;;;;;;14.93;4.50;;;;;;;;;;5029077;28;20410;-66
2023/10/04 05:58:06;;;;;;;15.52;4.30;;;;;;;;;;5027888;28;21145;-65
2023/10/04 06:00:34;;;;;;;13.57;4.60;;;;;;;;;;5030779;28;20405;-66
2023/10/04 06:03:04;;;;;;;15.73;4.40;;;;;;;;;;5021599;28;20494;-66
2023/10/04 06:05:33;;;;;;;13.83;4.23;;;;;;;;;;5019576;28;20413;-65
2023/10/04 06:08:00;;;;;;;16.67;4.82;;;;;;;;;;5020239;28;20787;-63
2023/10/04 06:10:27;;;;;;;15.90;4.30;;;;;;;;;;5026754;28;20457;-64
2023/10/04 06:12:55;;;;;;;15.52;4.25;;;;;;;;;;5025652;28;20434;-66
2023/10/04 06:15:24;;;;;;;14.52;4.68;;;;;;;;;;5021031;28;20413;-66
2023/10/04 06:17:52;;;;;;;17.77;4.53;;;;;;;;;;5020763;28;20505;-68
2023/10/04 06:20:28;;;;;;;12.55;3.78;;;;;;;;;;5020403;28;20495;-68
2023/10/04 06:22:56;;;;;;;13.40;3.97;;;;;;;;;;5025763;28;20415;-66
2023/10/04 06:25:24;;;;;;;15.07;4.50;;;;;;;;;;5023469;28;20408;-65
2023/10/04 06:27:51;;;;;;;9.02;3.80;;;;;;;;;;5021421;28;20419;-67
2023/10/04 06:30:22;;;;;;;12.73;3.95;;;;;;;;;;5022870;28;20433;-67
2023/10/04 06:32:50;;;;;;;15.70;4.45;;;;;;;;;;5022488;28;20484;-66
2023/10/04 06:35:22;;;;;;;21.23;4.13;;;;;;;;;;5022049;28;20411;-65
2023/10/04 06:37:50;;;;;;;15.20;3.75;;;;;;;;;;5022173;28;20418;-64
2023/10/04 06:40:19;;;;;;;12.88;3.63;;;;;;;;;;5025632;28;20434;-64
2023/10/04 06:42:49;;;;;;;16.42;3.65;;;;;;;;;;5029971;28;20419;-64
2023/10/04 06:45:17;;;;;;;12.97;4.33;;;;;;;;;;5026899;28;20461;-65
2023/10/04 06:47:44;;;;;;;12.65;4.32;;;;;;;;;;5026615;28;20413;-66
2023/10/04 06:50:14;;;;;;;18.67;4.38;;;;;;;;;;5022579;28;20434;-65
2023/10/04 06:55:18;;;;;;;14.73;4.80;;;;;;;;;;5175191;23;20454;-65
2023/10/04 06:57:45;;;;;;;14.13;4.80;;;;;;;;;;5040700;28;20908;-65
2023/10/04 07:00:14;;;;;;;18.90;4.72;;;;;;;;;;5039904;28;20473;-66
2023/10/04 07:02:43;;;;;;;18.88;4.78;;;;;;;;;;5043031;28;20448;-65
2023/10/04 07:05:10;;;;;;;13.60;4.03;;;;;;;;;;5045474;28;20421;-65
2023/10/04 07:07:38;;;;;;;12.80;4.53;;;;;;;;;;5043784;28;20452;-65
2023/10/04 07:10:08;;;;;;;16.38;4.78;;;;;;;;;;5033296;28;20501;-65
2023/10/04 07:12:36;;;;;;;17.30;5.20;;;;;;;;;;5033500;28;20756;-65
2023/10/04 07:15:04;;;;;;;15.73;4.60;;;;;;;;;;5047378;28;20456;-65
2023/10/04 07:17:31;;;;;;;13.93;4.60;;;;;;;;;;5042046;28;20450;-66
2023/10/04 07:19:58;;;;;;;15.50;4.65;;;;;;;;;;5044275;28;20494;-66
2023/10/04 07:22:29;;;;;;;12.38;5.28;;;;;;;;;;5040057;28;20492;-66
2023/10/04 07:24:58;;;;;;;15.60;5.00;;;;;;;;;;5040521;28;20449;-66
2023/10/04 07:27:26;;;;;;;19.17;4.93;;;;;;;;;;5040884;28;20415;-66
2023/10/04 07:29:53;;;;;;;13.15;4.80;;;;;;;;;;5042264;28;20417;-66
2023/10/04 07:32:21;;;;;;;12.15;4.78;;;;;;;;;;5042264;28;20523;-66
2023/10/04 07:34:48;;;;;;;11.55;4.93;;;;;;;;;;5045991;28;20479;-66
2023/10/04 07:37:15;;;;;;;15.07;5.10;;;;;;;;;;5038473;28;20419;-66
2023/10/04 07:39:42;;;;;;;15.10;4.97;;;;;;;;;;5040768;28;20409;-66
2023/10/04 07:42:11;;;;;;;15.82;5.20;;;;;;;;;;5040625;28;20409;-67
2023/10/04 07:44:38;;;;;;;15.90;4.88;;;;;;;;;;5038632;28;20411;-67
2023/10/04 07:47:05;;;;;;;17.20;5.40;;;;;;;;;;5042296;28;20416;-66
2023/10/04 07:49:33;;;;;;;15.52;5.20;;;;;;;;;;5039141;28;20506;-66
2023/10/04 07:52:00;;;;;;;14.07;5.10;;;;;;;;;;5046287;28;20432;-63
2023/10/04 07:54:27;;;;;;;15.30;5.35;;;;;;;;;;5041015;28;20422;-63
2023/10/04 07:56:55;;;;;;;13.45;5.93;;;;;;;;;;5042280;28;20484;-65
2023/10/04 07:59:23;;;;;;;19.05;5.68;;;;;;;;;;5041602;28;20418;-66
2023/10/04 08:01:50;;;;;;;17.55;5.40;;;;;;;;;;5043109;28;20429;-63
2023/10/04 08:04:36;;;;;;;16.08;5.60;;;;;;;;;;5049869;23;20499;-66
2023/10/04 08:07:03;;;;;;;14.07;4.82;;;;;;;;;;5040662;28;20405;-60
2023/10/04 08:09:30;;;;;;;11.25;5.03;;;;;;;;;;5038267;28;20426;-61
2023/10/04 08:11:57;;;;;;;16.85;6.57;;;;;;;;;;5039887;28;20429;-62
2023/10/04 08:14:25;;;;;;;15.55;8.20;;;;;;;;;;5021542;28;20425;-63
2023/10/04 08:16:53;;;;;;;13.07;5.18;;;;;;;;;;5024578;28;20415;-62
2023/10/04 08:19:20;;;;;;;15.30;5.07;;;;;;;;;;5021027;28;20502;-63
2023/10/04 08:21:48;;;;;;;13.13;5.00;;;;;;;;;;5018043;28;20775;-62
2023/10/04 08:24:15;;;;;;;11.20;4.60;;;;;;;;;;5021346;28;20411;-62
2023/10/04 08:26:42;;;;;;;14.65;4.55;;;;;;;;;;5021737;28;20453;-61
2023/10/04 08:29:10;;;;;;;13.98;4.88;;;;;;;;;;5022163;28;20441;-62
2023/10/04 08:31:39;;;;;;;12.90;4.60;;;;;;;;;;5021294;28;20551;-62
2023/10/04 08:34:07;;;;;;;14.05;4.88;;;;;;;;;;5022478;28;20440;-61
2023/10/04 08:36:34;;;;;;;14.52;4.35;;;;;;;;;;5026202;28;20413;-61
2023/10/04 08:39:09;;;;;;;15.52;4.63;;;;;;;;;;5025077;28;20830;-61
2023/10/04 08:41:36;;;;;;;11.20;3.70;;;;;;;;;;5024638;28;20482;-62
2023/10/04 08:44:05;;;;;;;14.65;3.65;;;;;;;;;;5022203;28;20431;-57
2023/10/04 08:46:34;;;;;;;10.20;3.97;;;;;;;;;;5024335;28;20427;-61
2023/10/04 08:49:04;;;;;;;12.02;3.65;;;;;;;;;;5024451;28;20422;-62
2023/10/04 08:51:35;;;;;;;12.85;4.10;;;;;;;;;;5020769;28;20457;-63
2023/10/04 08:54:08;;;;;;;11.80;4.30;;;;;;;;;;5024353;28;20456;-63
2023/10/04 08:56:37;;;;;;;13.30;4.82;;;;;;;;;;5022205;28;20419;-63
2023/10/04 08:59:04;;;;;;;14.73;4.70;;;;;;;;;;5022730;28;21407;-63
2023/10/04 09:01:32;;;;;;;13.05;4.50;;;;;;;;;;5024810;28;20924;-64
2023/10/04 09:04:00;;;;;;;13.33;4.23;;;;;;;;;;5021675;28;20481;-62
2023/10/04 09:06:29;;;;;;;10.70;4.05;;;;;;;;;;5021339;28;20464;-61
2023/10/04 09:08:57;;;;;;;11.73;4.13;;;;;;;;;;5023698;28;20457;-62
2023/10/04 09:11:25;;;;;;;16.35;4.50;;;;;;;;;;5020923;28;20485;-62
2023/10/04 09:13:54;;;;;;;10.85;3.97;;;;;;;;;;5024537;28;20518;-61
2023/10/04 09:16:22;;;;;;;10.82;4.07;;;;;;;;;;5021447;28;20951;-62
2023/10/04 09:18:49;;;;;;;12.97;4.20;;;;;;;;;;5023232;28;20541;-62
2023/10/04 09:21:16;;;;;;;14.15;4.78;;;;;;;;;;5023272;28;20450;-61
2023/10/04 09:23:46;;;;;;;14.38;4.50;;;;;;;;;;5022036;28;20421;-64
2023/10/04 09:26:16;;;;;;;12.13;4.20;;;;;;;;;;5022955;28;20418;-61
2023/10/04 09:28:43;;;;;;;14.83;4.63;;;;;;;;;;5025880;28;20425;-63
2023/10/04 09:31:12;;;;;;;12.52;4.50;;;;;;;;;;5027593;28;20446;-62
2023/10/04 09:33:40;;;;;;;13.77;4.85;;;;;;;;;;5029098;28;20524;-62
2023/10/04 09:36:10;;;;;;;14.30;4.78;;;;;;;;;;5026761;28;20430;-62
2023/10/04 09:38:39;;;;;;;12.40;4.45;;;;;;;;;;5023888;28;20416;-62
2023/10/04 09:41:09;;;;;;;12.95;4.38;;;;;;;;;;5020853;28;20847;-63
2023/10/04 09:43:37;;;;;;;11.57;4.15;;;;;;;;;;5024143;28;20437;-62
2023/10/04 09:46:09;;;;;;;11.18;3.97;;;;;;;;;;5025288;28;20419;-63
2023/10/04 09:48:37;;;;;;;11.43;4.28;;;;;;;;;;5020655;28;20415;-63
2023/10/04 09:51:05;;;;;;;16.07;4.60;;;;;;;;;;5024338;28;20437;-63
2023/10/04 09:53:32;;;;;;;12.82;4.20;;;;;;;;;;5022927;28;20487;-63
2023/10/04 09:56:01;;;;;;;26.95;11.23;;;;;;;;;;5023466;28;20451;-63
2023/10/04 09:58:30;;;;;;;12.05;4.32;;;;;;;;;;5021617;28;20420;-63
2023/10/04 10:01:00;;;;;;;14.07;4.03;;;;;;;;;;5021012;28;20491;-63
2023/10/04 10:03:30;;;;;;;10.50;3.58;;;;;;;;;;5017057;28;20479;-63
2023/10/04 10:05:58;;;;;;;13.07;3.90;;;;;;;;;;5021164;28;20421;-63
2023/10/04 10:08:27;;;;;;;16.83;4.10;;;;;;;;;;5023200;28;20461;-63
2023/10/04 10:10:56;;;;;;;11.73;3.70;;;;;;;;;;5026575;28;20423;-62
2023/10/04 10:13:23;;;;;;;12.98;3.40;;;;;;;;;;5019820;28;20487;-63
2023/10/04 10:15:53;;;;;;;12.27;3.70;;;;;;;;;;5020335;28;20882;-64
2023/10/04 10:18:21;;;;;;;14.68;3.72;;;;;;;;;;5020959;28;20963;-65
2023/10/04 10:20:48;;;;;;;11.68;3.88;;;;;;;;;;5023062;28;20789;-66
2023/10/04 10:23:16;;;;;;;14.50;5.70;;;;;;;;;;5022382;28;20963;-68
2023/10/04 10:26:10;;;;;;;17.58;5.50;;;;;;;;;;5021800;28;20588;-66
2023/10/04 10:28:38;;;;;;;12.90;4.47;;;;;;;;;;5018894;28;20415;-65
2023/10/04 10:31:07;;;;;;;15.75;4.82;;;;;;;;;;5011763;28;20477;-66
2023/10/04 10:33:34;;;;;;;13.43;4.15;;;;;;;;;;5023663;28;20486;-67
2023/10/04 10:36:01;;;;;;;10.65;3.90;;;;;;;;;;5024134;28;20407;-66
2023/10/04 10:38:32;;;;;;;12.32;3.33;;;;;;;;;;5024423;28;20818;-66
2023/10/04 10:40:59;;;;;;;12.10;3.33;;;;;;;;;;5023766;28;20477;-67
2023/10/04 10:43:26;;;;;;;10.73;3.10;;;;;;;;;;5019756;28;20996;-63
2023/10/04 10:45:56;;;;;;;13.45;3.83;;;;;;;;;;5022297;28;20420;-63
2023/10/04 10:48:32;;;;;;;11.48;3.47;;;;;;;;;;5025868;28;20993;-67
2023/10/04 10:51:01;;;;;;;10.90;3.00;;;;;;;;;;5015656;28;21346;-65
2023/10/04 10:53:28;;;;;;;8.90;3.13;;;;;;;;;;5023185;28;20413;-66
2023/10/04 10:55:55;;;;;;;12.13;3.03;;;;;;;;;;5021979;28;20421;-66
2023/10/04 10:58:22;;;;;;;8.93;2.80;;;;;;;;;;5023789;28;20407;-67
2023/10/04 11:00:49;;;;;;;8.52;2.78;;;;;;;;;;5022208;28;20419;-67
2023/10/04 11:03:20;;;;;;;10.13;3.10;;;;;;;;;;5018076;28;20421;-64
2023/10/04 11:05:47;;;;;;;10.85;3.28;;;;;;;;;;5020392;28;20412;-65
2023/10/04 11:08:15;;;;;;;9.52;3.15;;;;;;;;;;5021221;28;20492;-65
2023/10/04 11:10:43;;;;;;;9.73;2.92;;;;;;;;;;5019205;28;20498;-66
2023/10/04 11:13:17;;;;;;;10.20;2.90;;;;;;;;;;5019560;28;20512;-65
2023/10/04 11:15:46;;;;;;;9.52;3.25;;;;;;;;;;5019411;28;20420;-67
2023/10/04 11:18:14;;;;;;;11.48;3.10;;;;;;;;;;5020574;28;20948;-67
2023/10/04 11:20:43;;;;;;;10.25;3.00;;;;;;;;;;5018641;28;20451;-67
2023/10/04 11:23:11;;;;;;;8.13;3.15;;;;;;;;;;5019236;28;20460;-65
2023/10/04 11:25:38;;;;;;;9.13;3.20;;;;;;;;;;5023138;28;20475;-67
2023/10/04 11:28:07;;;;;;;10.57;3.00;;;;;;;;;;5019640;28;20413;-67
2023/10/04 11:30:34;;;;;;;8.93;3.22;;;;;;;;;;5022274;28;20898;-66
2023/10/04 11:33:01;;;;;;;8.80;3.08;;;;;;;;;;5020813;28;20961;-66
2023/10/04 11:35:33;;;;;;;10.95;3.10;;;;;;;;;;5024937;28;20424;-66
2023/10/04 11:38:05;;;;;;;8.05;2.95;;;;;;;;;;5023058;28;20411;-61
2023/10/04 11:40:33;;;;;;;9.00;2.88;;;;;;;;;;5026091;28;20421;-62
2023/10/04 11:43:00;;;;;;;8.88;3.08;;;;;;;;;;5022672;28;20423;-62
2023/10/04 11:45:28;;;;;;;8.20;3.25;;;;;;;;;;5025289;28;20891;-62
2023/10/04 11:47:59;;;;;;;9.18;2.92;;;;;;;;;;5024407;28;20414;-62
2023/10/04 11:50:27;;;;;;;9.20;2.90;;;;;;;;;;5023036;28;20505;-62
2023/10/04 11:52:56;;;;;;;7.40;2.53;;;;;;;;;;5025887;28;21004;-64
2023/10/04 11:55:28;;;;;;;9.20;3.13;;;;;;;;;;5018256;28;20814;-61
2023/10/04 11:58:04;;;;;;;8.63;2.65;;;;;;;;;;5022822;28;20415;-63
2023/10/04 12:00:31;;;;;;;8.20;3.00;;;;;;;;;;5015631;28;20409;-63
2023/10/04 12:02:59;;;;;;;9.13;3.00;;;;;;;;;;5019858;28;20413;-64
2023/10/04 12:05:26;;;;;;;9.93;2.83;;;;;;;;;;5022130;28;20507;-62
2023/10/04 12:07:58;;;;;;;8.98;3.13;;;;;;;;;;5022750;28;20579;-64
2023/10/04 12:10:25;;;;;;;9.93;2.75;;;;;;;;;;5023310;28;20416;-66
2023/10/04 12:12:55;;;;;;;7.43;2.88;;;;;;;;;;5023004;28;20429;-63
2023/10/04 12:15:22;;;;;;;7.72;2.53;;;;;;;;;;5024487;28;20509;-64
2023/10/04 12:17:49;;;;;;;9.95;2.90;;;;;;;;;;5022207;28;20425;-63
2023/10/04 12:20:20;;;;;;;7.57;3.03;;;;;;;;;;5027623;28;20407;-62
2023/10/04 12:22:47;;;;;;;8.15;3.10;;;;;;;;;;5026352;28;20576;-62
2023/10/04 12:25:14;;;;;;;10.43;3.57;;;;;;;;;;5023136;28;20418;-62
2023/10/04 12:27:42;;;;;;;9.20;3.30;;;;;;;;;;5025110;28;20491;-63
2023/10/04 12:30:14;;;;;;;10.23;3.47;;;;;;;;;;5021685;28;20431;-62
2023/10/04 12:32:41;;;;;;;10.97;3.53;;;;;;;;;;5025430;28;20488;-63
2023/10/04 12:35:13;;;;;;;10.82;3.58;;;;;;;;;;5023169;28;20417;-63
2023/10/04 12:37:40;;;;;;;9.93;3.50;;;;;;;;;;5022703;28;20426;-63
2023/10/04 12:40:16;;;;;;;9.93;3.37;;;;;;;;;;5022605;28;20408;-62
2023/10/04 12:42:43;;;;;;;10.00;3.63;;;;;;;;;;5022127;28;20898;-62
2023/10/04 12:45:12;;;;;;;9.57;3.78;;;;;;;;;;5022627;28;20467;-62
2023/10/04 12:47:41;;;;;;;12.45;4.03;;;;;;;;;;5023579;28;20441;-63
2023/10/04 12:50:09;;;;;;;10.40;3.55;;;;;;;;;;5025017;28;20421;-63
2023/10/04 12:52:36;;;;;;;9.63;3.40;;;;;;;;;;5023779;28;20942;-62
2023/10/04 12:55:05;;;;;;;10.95;4.00;;;;;;;;;;5022363;28;20417;-62
2023/10/04 12:57:32;;;;;;;9.23;3.90;;;;;;;;;;5021803;28;20511;-62
2023/10/04 12:59:59;;;;;;;11.10;3.70;;;;;;;;;;5024153;28;20419;-62
2023/10/04 13:02:27;;;;;;;9.13;3.60;;;;;;;;;;5023628;28;20407;-62
2023/10/04 13:04:54;;;;;;;7.82;3.80;;;;;;;;;;5021493;28;20814;-63
2023/10/04 13:07:21;;;;;;;12.82;3.88;;;;;;;;;;5023741;28;20418;-62
2023/10/04 13:09:48;;;;;;;9.55;3.88;;;;;;;;;;5023406;28;20494;-63
2023/10/04 13:12:15;;;;;;;9.73;4.00;;;;;;;;;;5021222;28;21104;-62
2023/10/04 13:14:43;;;;;;;9.45;4.20;;;;;;;;;;5023925;28;20856;-62
2023/10/04 13:17:11;;;;;;;8.50;3.78;;;;;;;;;;5021996;28;20419;-63
2023/10/04 13:19:40;;;;;;;10.90;4.00;;;;;;;;;;5021468;28;20420;-63
2023/10/04 13:22:10;;;;;;;8.73;4.18;;;;;;;;;;5023822;28;20403;-63
2023/10/04 13:24:37;;;;;;;9.52;3.88;;;;;;;;;;5021766;28;20444;-62
2023/10/04 13:27:04;;;;;;;10.10;3.80;;;;;;;;;;5024527;28;20415;-63
2023/10/04 13:29:31;;;;;;;11.20;4.53;;;;;;;;;;5022434;28;20424;-63
2023/10/04 13:31:58;;;;;;;10.32;4.53;;;;;;;;;;5022693;28;20417;-62
2023/10/04 13:34:25;;;;;;;9.23;3.95;;;;;;;;;;5024024;28;20751;-63
2023/10/04 13:36:54;;;;;;;9.55;4.53;;;;;;;;;;5021957;28;20423;-63
2023/10/04 13:39:22;;;;;;;9.15;3.60;;;;;;;;;;5022180;28;20827;-64
2023/10/04 13:41:49;;;;;;;11.05;4.30;;;;;;;;;;5024417;28;20422;-63
2023/10/04 13:44:18;;;;;;;10.85;4.28;;;;;;;;;;5022243;28;20409;-64
2023/10/04 13:46:48;;;;;;;10.63;4.15;;;;;;;;;;5021483;28;20409;-63
2023/10/04 13:49:15;;;;;;;9.93;4.95;;;;;;;;;;5017734;28;20416;-63
2023/10/04 13:51:42;;;;;;;8.63;4.13;;;;;;;;;;5017705;28;20494;-62
2023/10/04 13:54:11;;;;;;;11.70;4.88;;;;;;;;;;5022868;28;21153;-62
2023/10/04 13:56:38;;;;;;;9.30;4.28;;;;;;;;;;5017446;28;20417;-63
2023/10/04 13:59:05;;;;;;;10.50;4.60;;;;;;;;;;5016548;28;20432;-62
2023/10/04 14:01:33;;;;;;;12.80;4.50;;;;;;;;;;5025863;28;20422;-63
2023/10/04 14:04:00;;;;;;;10.45;4.80;;;;;;;;;;5017966;28;20479;-62
2023/10/04 14:06:27;;;;;;;11.55;4.90;;;;;;;;;;5017799;28;21192;-63
2023/10/04 14:08:54;;;;;;;10.48;4.68;;;;;;;;;;5025579;28;20415;-63
2023/10/04 14:11:23;;;;;;;12.77;4.80;;;;;;;;;;5025878;28;20434;-63
2023/10/04 14:13:51;;;;;;;9.15;4.60;;;;;;;;;;5023292;28;20489;-62
2023/10/04 14:16:19;;;;;;;11.20;4.93;;;;;;;;;;5024075;28;20415;-62
2023/10/04 14:18:47;;;;;;;8.88;4.75;;;;;;;;;;5025963;28;20452;-62
2023/10/04 14:21:14;;;;;;;10.25;4.75;;;;;;;;;;5022542;28;20423;-66
2023/10/04 14:23:41;;;;;;;10.35;4.35;;;;;;;;;;5021295;28;20415;-65
2023/10/04 14:26:08;;;;;;;10.95;4.88;;;;;;;;;;5022923;28;20481;-64
2023/10/04 14:28:37;;;;;;;12.80;5.20;;;;;;;;;;5021066;28;20419;-66
2023/10/04 14:31:04;;;;;;;13.93;5.43;;;;;;;;;;5025636;28;21080;-66
2023/10/04 14:33:31;;;;;;;11.23;4.40;;;;;;;;;;5021645;28;20425;-65
2023/10/04 14:35:59;;;;;;;11.32;5.05;;;;;;;;;;5021468;28;20826;-64
2023/10/04 14:38:26;;;;;;;10.15;4.95;;;;;;;;;;5022745;28;20415;-65
2023/10/04 14:40:54;;;;;;;11.32;4.70;;;;;;;;;;5020162;28;20412;-63
2023/10/04 14:43:21;;;;;;;8.85;4.28;;;;;;;;;;5021159;28;20868;-64